sensor_id;sensor_type;location;lat;lon;timestamp;P1;durP1;ratioP1;P2;durP2;ratioP2
2105;SDS011;1059;52.548;13.408;2023-05-10T00:01:09;7.37;;;6.63;;
2105;SDS011;1059;52.548;13.408;2023-05-10T00:03:37;6.20;;;5.60;;
2105;SDS011;1059;52.548;13.408;2023-05-10T00:06:05;6.90;;;6.20;;
2105;SDS011;1059;52.548;13.408;2023-05-10T00:08:32;8.90;;;6.33;;
2105;SDS011;1059;52.548;13.408;2023-05-10T00:10:58;8.00;;;5.57;;
2105;SDS011;1059;52.548;13.408;2023-05-10T00:13:25;8.37;;;5.77;;
2105;SDS011;1059;52.548;13.408;2023-05-10T00:15:52;6.77;;;6.07;;
2105;SDS011;1059;52.548;13.408;2023-05-10T00:18:19;6.60;;;5.90;;
2105;SDS011;1059;52.548;13.408;2023-05-10T00:20:47;6.20;;;5.60;;
2105;SDS011;1059;52.548;13.408;2023-05-10T00:23:14;9.63;;;6.30;;
2105;SDS011;1059;52.548;13.408;2023-05-10T00:25:41;7.27;;;5.60;;
2105;SDS011;1059;52.548;13.408;2023-05-10T00:28:08;7.73;;;5.70;;
2105;SDS011;1059;52.548;13.408;2023-05-10T00:30:35;6.60;;;5.90;;
2105;SDS011;1059;52.548;13.408;2023-05-10T00:33:02;6.03;;;5.30;;
2105;SDS011;1059;52.548;13.408;2023-05-10T00:35:29;6.63;;;6.00;;
2105;SDS011;1059;52.548;13.408;2023-05-10T00:37:57;5.93;;;5.43;;
2105;SDS011;1059;52.548;13.408;2023-05-10T00:40:24;6.27;;;5.67;;
2105;SDS011;1059;52.548;13.408;2023-05-10T00:42:51;7.17;;;6.33;;
2105;SDS011;1059;52.548;13.408;2023-05-10T00:45:18;6.13;;;5.53;;
2105;SDS011;1059;52.548;13.408;2023-05-10T00:47:45;9.50;;;5.90;;
2105;SDS011;1059;52.548;13.408;2023-05-10T00:50:11;8.83;;;6.27;;
2105;SDS011;1059;52.548;13.408;2023-05-10T00:52:39;7.80;;;6.37;;
2105;SDS011;1059;52.548;13.408;2023-05-10T00:55:08;6.80;;;6.13;;
2105;SDS011;1059;52.548;13.408;2023-05-10T00:57:37;7.43;;;5.90;;
2105;SDS011;1059;52.548;13.408;2023-05-10T01:00:05;8.70;;;6.30;;
2105;SDS011;1059;52.548;13.408;2023-05-10T01:02:33;6.80;;;6.10;;
2105;SDS011;1059;52.548;13.408;2023-05-10T01:05:00;6.60;;;5.90;;
2105;SDS011;1059;52.548;13.408;2023-05-10T01:07:30;6.90;;;6.23;;
2105;SDS011;1059;52.548;13.408;2023-05-10T01:09:57;6.70;;;6.00;;
2105;SDS011;1059;52.548;13.408;2023-05-10T01:12:25;7.60;;;6.67;;
2105;SDS011;1059;52.548;13.408;2023-05-10T01:14:52;7.20;;;5.90;;
2105;SDS011;1059;52.548;13.408;2023-05-10T01:17:20;6.90;;;6.30;;
2105;SDS011;1059;52.548;13.408;2023-05-10T01:19:48;6.63;;;6.00;;
2105;SDS011;1059;52.548;13.408;2023-05-10T01:22:22;6.70;;;6.00;;
2105;SDS011;1059;52.548;13.408;2023-05-10T01:25:06;5.70;;;5.20;;
2105;SDS011;1059;52.548;13.408;2023-05-10T01:28:05;6.77;;;5.90;;
2105;SDS011;1059;52.548;13.408;2023-05-10T01:30:46;7.50;;;5.70;;
2105;SDS011;1059;52.548;13.408;2023-05-10T01:33:37;6.50;;;5.90;;
2105;SDS011;1059;52.548;13.408;2023-05-10T01:36:08;7.10;;;6.33;;
2105;SDS011;1059;52.548;13.408;2023-05-10T01:38:43;6.37;;;5.77;;
2105;SDS011;1059;52.548;13.408;2023-05-10T01:41:16;6.53;;;5.93;;
2105;SDS011;1059;52.548;13.408;2023-05-10T01:43:48;5.50;;;5.00;;
2105;SDS011;1059;52.548;13.408;2023-05-10T01:46:22;6.00;;;5.50;;
2105;SDS011;1059;52.548;13.408;2023-05-10T01:48:55;6.80;;;6.03;;
2105;SDS011;1059;52.548;13.408;2023-05-10T01:51:25;7.90;;;6.77;;
2105;SDS011;1059;52.548;13.408;2023-05-10T01:53:57;6.47;;;5.87;;
2105;SDS011;1059;52.548;13.408;2023-05-10T01:56:27;9.60;;;5.53;;
2105;SDS011;1059;52.548;13.408;2023-05-10T01:58:56;6.83;;;6.30;;
2105;SDS011;1059;52.548;13.408;2023-05-10T02:01:24;6.50;;;5.63;;
2105;SDS011;1059;52.548;13.408;2023-05-10T02:03:54;7.37;;;6.60;;
2105;SDS011;1059;52.548;13.408;2023-05-10T02:06:23;7.23;;;6.10;;
2105;SDS011;1059;52.548;13.408;2023-05-10T02:08:51;6.87;;;6.13;;
2105;SDS011;1059;52.548;13.408;2023-05-10T02:11:19;7.90;;;6.30;;
2105;SDS011;1059;52.548;13.408;2023-05-10T02:13:48;6.93;;;6.17;;
2105;SDS011;1059;52.548;13.408;2023-05-10T02:16:16;6.43;;;5.80;;
2105;SDS011;1059;52.548;13.408;2023-05-10T02:18:48;6.93;;;6.30;;
2105;SDS011;1059;52.548;13.408;2023-05-10T02:21:18;6.60;;;5.90;;
2105;SDS011;1059;52.548;13.408;2023-05-10T02:23:46;6.40;;;5.90;;
2105;SDS011;1059;52.548;13.408;2023-05-10T02:26:14;6.90;;;5.63;;
2105;SDS011;1059;52.548;13.408;2023-05-10T02:28:43;6.87;;;6.17;;
2105;SDS011;1059;52.548;13.408;2023-05-10T02:31:10;6.27;;;5.67;;
2105;SDS011;1059;52.548;13.408;2023-05-10T02:33:38;6.17;;;5.47;;
2105;SDS011;1059;52.548;13.408;2023-05-10T02:36:07;6.60;;;5.87;;
2105;SDS011;1059;52.548;13.408;2023-05-10T02:38:37;6.40;;;5.67;;
2105;SDS011;1059;52.548;13.408;2023-05-10T02:41:04;8.37;;;5.73;;
2105;SDS011;1059;52.548;13.408;2023-05-10T02:43:34;6.17;;;5.57;;
2105;SDS011;1059;52.548;13.408;2023-05-10T02:46:02;9.73;;;5.87;;
2105;SDS011;1059;52.548;13.408;2023-05-10T02:48:29;6.80;;;5.77;;
2105;SDS011;1059;52.548;13.408;2023-05-10T02:50:58;6.57;;;5.80;;
2105;SDS011;1059;52.548;13.408;2023-05-10T02:53:31;6.27;;;5.60;;
2105;SDS011;1059;52.548;13.408;2023-05-10T02:56:01;7.93;;;6.47;;
2105;SDS011;1059;52.548;13.408;2023-05-10T02:58:32;6.30;;;5.70;;
2105;SDS011;1059;52.548;13.408;2023-05-10T03:01:00;6.73;;;5.80;;
2105;SDS011;1059;52.548;13.408;2023-05-10T03:03:27;6.10;;;5.50;;
2105;SDS011;1059;52.548;13.408;2023-05-10T03:05:53;6.80;;;5.80;;
2105;SDS011;1059;52.548;13.408;2023-05-10T03:08:21;6.70;;;6.03;;
2105;SDS011;1059;52.548;13.408;2023-05-10T03:10:51;6.00;;;5.37;;
2105;SDS011;1059;52.548;13.408;2023-05-10T03:13:29;8.90;;;5.80;;
2105;SDS011;1059;52.548;13.408;2023-05-10T03:16:05;6.00;;;5.40;;
2105;SDS011;1059;52.548;13.408;2023-05-10T03:18:37;9.13;;;6.27;;
2105;SDS011;1059;52.548;13.408;2023-05-10T03:21:10;9.10;;;5.40;;
2105;SDS011;1059;52.548;13.408;2023-05-10T03:23:40;7.93;;;5.27;;
2105;SDS011;1059;52.548;13.408;2023-05-10T03:26:10;7.30;;;5.80;;
2105;SDS011;1059;52.548;13.408;2023-05-10T03:28:44;8.77;;;6.50;;
2105;SDS011;1059;52.548;13.408;2023-05-10T03:31:13;5.67;;;5.17;;
2105;SDS011;1059;52.548;13.408;2023-05-10T03:33:45;5.93;;;5.33;;
2105;SDS011;1059;52.548;13.408;2023-05-10T03:36:13;9.93;;;6.10;;
2105;SDS011;1059;52.548;13.408;2023-05-10T03:38:40;6.23;;;5.63;;
2105;SDS011;1059;52.548;13.408;2023-05-10T03:41:07;8.53;;;6.60;;
2105;SDS011;1059;52.548;13.408;2023-05-10T03:43:33;6.10;;;5.27;;
2105;SDS011;1059;52.548;13.408;2023-05-10T03:46:02;7.07;;;5.67;;
2105;SDS011;1059;52.548;13.408;2023-05-10T03:48:30;8.90;;;6.00;;
2105;SDS011;1059;52.548;13.408;2023-05-10T03:50:58;9.23;;;6.57;;
2105;SDS011;1059;52.548;13.408;2023-05-10T03:53:25;10.10;;;5.43;;
2105;SDS011;1059;52.548;13.408;2023-05-10T03:55:52;9.37;;;5.67;;
2105;SDS011;1059;52.548;13.408;2023-05-10T03:58:19;8.07;;;4.97;;
2105;SDS011;1059;52.548;13.408;2023-05-10T04:00:46;5.93;;;5.40;;
2105;SDS011;1059;52.548;13.408;2023-05-10T04:03:15;5.67;;;5.17;;
2105;SDS011;1059;52.548;13.408;2023-05-10T04:05:42;7.33;;;5.30;;
2105;SDS011;1059;52.548;13.408;2023-05-10T04:08:09;7.37;;;5.70;;
2105;SDS011;1059;52.548;13.408;2023-05-10T04:10:35;6.80;;;5.93;;
2105;SDS011;1059;52.548;13.408;2023-05-10T04:13:02;5.47;;;4.73;;
2105;SDS011;1059;52.548;13.408;2023-05-10T04:15:29;9.77;;;4.67;;
2105;SDS011;1059;52.548;13.408;2023-05-10T04:17:56;6.77;;;5.53;;
2105;SDS011;1059;52.548;13.408;2023-05-10T04:20:24;5.83;;;5.33;;
2105;SDS011;1059;52.548;13.408;2023-05-10T04:22:51;6.50;;;5.60;;
2105;SDS011;1059;52.548;13.408;2023-05-10T04:25:18;7.40;;;5.10;;
2105;SDS011;1059;52.548;13.408;2023-05-10T04:27:45;6.90;;;5.80;;
2105;SDS011;1059;52.548;13.408;2023-05-10T04:30:12;8.17;;;6.00;;
2105;SDS011;1059;52.548;13.408;2023-05-10T04:32:39;8.07;;;5.60;;
2105;SDS011;1059;52.548;13.408;2023-05-10T04:35:06;7.73;;;6.10;;
2105;SDS011;1059;52.548;13.408;2023-05-10T04:37:36;7.23;;;5.23;;
2105;SDS011;1059;52.548;13.408;2023-05-10T04:40:03;5.57;;;5.07;;
2105;SDS011;1059;52.548;13.408;2023-05-10T04:42:31;6.33;;;5.57;;
2105;SDS011;1059;52.548;13.408;2023-05-10T04:44:58;5.13;;;4.73;;
2105;SDS011;1059;52.548;13.408;2023-05-10T04:47:25;6.33;;;5.67;;
2105;SDS011;1059;52.548;13.408;2023-05-10T04:49:51;7.90;;;5.77;;
2105;SDS011;1059;52.548;13.408;2023-05-10T04:52:18;5.83;;;5.23;;
2105;SDS011;1059;52.548;13.408;2023-05-10T04:54:47;7.13;;;5.07;;
2105;SDS011;1059;52.548;13.408;2023-05-10T04:57:14;5.30;;;4.80;;
2105;SDS011;1059;52.548;13.408;2023-05-10T04:59:40;6.00;;;4.83;;
2105;SDS011;1059;52.548;13.408;2023-05-10T05:02:07;8.83;;;6.40;;
2105;SDS011;1059;52.548;13.408;2023-05-10T05:04:34;5.97;;;5.37;;
2105;SDS011;1059;52.548;13.408;2023-05-10T05:07:01;11.63;;;5.60;;
2105;SDS011;1059;52.548;13.408;2023-05-10T05:09:28;10.67;;;8.37;;
2105;SDS011;1059;52.548;13.408;2023-05-10T05:11:58;7.80;;;7.00;;
2105;SDS011;1059;52.548;13.408;2023-05-10T05:14:25;6.30;;;4.87;;
2105;SDS011;1059;52.548;13.408;2023-05-10T05:16:52;7.13;;;5.30;;
2105;SDS011;1059;52.548;13.408;2023-05-10T05:19:19;4.90;;;4.50;;
2105;SDS011;1059;52.548;13.408;2023-05-10T05:21:46;5.17;;;4.30;;
2105;SDS011;1059;52.548;13.408;2023-05-10T05:24:13;6.40;;;4.73;;
2105;SDS011;1059;52.548;13.408;2023-05-10T05:26:40;5.43;;;4.83;;
2105;SDS011;1059;52.548;13.408;2023-05-10T05:29:08;4.60;;;4.20;;
2105;SDS011;1059;52.548;13.408;2023-05-10T05:31:35;8.00;;;5.80;;
2105;SDS011;1059;52.548;13.408;2023-05-10T05:34:02;8.30;;;4.73;;
2105;SDS011;1059;52.548;13.408;2023-05-10T05:36:29;8.73;;;5.10;;
2105;SDS011;1059;52.548;13.408;2023-05-10T05:38:56;6.93;;;4.40;;
2105;SDS011;1059;52.548;13.408;2023-05-10T05:41:23;5.47;;;4.60;;
2105;SDS011;1059;52.548;13.408;2023-05-10T05:43:51;5.77;;;4.90;;
2105;SDS011;1059;52.548;13.408;2023-05-10T05:46:19;4.53;;;4.13;;
2105;SDS011;1059;52.548;13.408;2023-05-10T05:48:46;6.93;;;5.43;;
2105;SDS011;1059;52.548;13.408;2023-05-10T05:51:12;8.80;;;4.73;;
2105;SDS011;1059;52.548;13.408;2023-05-10T05:53:39;13.57;;;4.60;;
2105;SDS011;1059;52.548;13.408;2023-05-10T05:56:06;5.77;;;4.60;;
2105;SDS011;1059;52.548;13.408;2023-05-10T05:58:34;4.60;;;4.10;;
2105;SDS011;1059;52.548;13.408;2023-05-10T06:01:01;6.20;;;4.03;;
2105;SDS011;1059;52.548;13.408;2023-05-10T06:03:29;7.00;;;3.77;;
2105;SDS011;1059;52.548;13.408;2023-05-10T06:05:56;5.00;;;4.00;;
2105;SDS011;1059;52.548;13.408;2023-05-10T06:08:23;4.60;;;3.63;;
2105;SDS011;1059;52.548;13.408;2023-05-10T06:10:50;4.40;;;4.00;;
2105;SDS011;1059;52.548;13.408;2023-05-10T06:13:17;4.77;;;3.60;;
2105;SDS011;1059;52.548;13.408;2023-05-10T06:15:44;4.33;;;3.93;;
2105;SDS011;1059;52.548;13.408;2023-05-10T06:18:11;5.60;;;3.90;;
2105;SDS011;1059;52.548;13.408;2023-05-10T06:20:40;8.00;;;3.23;;
2105;SDS011;1059;52.548;13.408;2023-05-10T06:23:07;5.13;;;3.87;;
2105;SDS011;1059;52.548;13.408;2023-05-10T06:25:34;3.90;;;3.60;;
2105;SDS011;1059;52.548;13.408;2023-05-10T06:28:01;8.20;;;3.37;;
2105;SDS011;1059;52.548;13.408;2023-05-10T06:30:28;5.67;;;3.07;;
2105;SDS011;1059;52.548;13.408;2023-05-10T06:32:55;3.63;;;3.13;;
2105;SDS011;1059;52.548;13.408;2023-05-10T06:35:21;3.77;;;3.37;;
2105;SDS011;1059;52.548;13.408;2023-05-10T06:37:50;8.57;;;3.00;;
2105;SDS011;1059;52.548;13.408;2023-05-10T06:40:17;4.30;;;3.57;;
2105;SDS011;1059;52.548;13.408;2023-05-10T06:42:44;3.47;;;2.83;;
2105;SDS011;1059;52.548;13.408;2023-05-10T06:45:11;4.13;;;3.30;;
2105;SDS011;1059;52.548;13.408;2023-05-10T06:47:39;6.60;;;3.10;;
2105;SDS011;1059;52.548;13.408;2023-05-10T06:50:06;5.17;;;3.20;;
2105;SDS011;1059;52.548;13.408;2023-05-10T06:52:34;3.10;;;2.90;;
2105;SDS011;1059;52.548;13.408;2023-05-10T06:55:03;4.73;;;3.20;;
2105;SDS011;1059;52.548;13.408;2023-05-10T06:57:30;8.23;;;4.43;;
2105;SDS011;1059;52.548;13.408;2023-05-10T06:59:57;5.40;;;3.70;;
2105;SDS011;1059;52.548;13.408;2023-05-10T07:02:24;5.10;;;2.90;;
2105;SDS011;1059;52.548;13.408;2023-05-10T07:04:52;4.70;;;3.40;;
2105;SDS011;1059;52.548;13.408;2023-05-10T07:07:19;3.43;;;3.10;;
2105;SDS011;1059;52.548;13.408;2023-05-10T07:09:46;8.13;;;6.33;;
2105;SDS011;1059;52.548;13.408;2023-05-10T07:12:15;3.73;;;3.17;;
2105;SDS011;1059;52.548;13.408;2023-05-10T07:14:42;5.03;;;3.20;;
2105;SDS011;1059;52.548;13.408;2023-05-10T07:17:09;4.67;;;3.10;;
2105;SDS011;1059;52.548;13.408;2023-05-10T07:19:35;3.53;;;3.17;;
2105;SDS011;1059;52.548;13.408;2023-05-10T07:22:02;3.20;;;2.90;;
2105;SDS011;1059;52.548;13.408;2023-05-10T07:24:29;3.30;;;2.80;;
2105;SDS011;1059;52.548;13.408;2023-05-10T07:26:56;3.80;;;2.97;;
2105;SDS011;1059;52.548;13.408;2023-05-10T07:29:24;4.60;;;3.40;;
2105;SDS011;1059;52.548;13.408;2023-05-10T07:31:51;5.40;;;3.60;;
2105;SDS011;1059;52.548;13.408;2023-05-10T07:34:18;5.30;;;3.17;;
2105;SDS011;1059;52.548;13.408;2023-05-10T07:36:45;4.40;;;2.97;;
2105;SDS011;1059;52.548;13.408;2023-05-10T07:39:12;8.83;;;3.20;;
2105;SDS011;1059;52.548;13.408;2023-05-10T07:41:39;10.20;;;3.50;;
2105;SDS011;1059;52.548;13.408;2023-05-10T07:44:06;17.03;;;3.90;;
2105;SDS011;1059;52.548;13.408;2023-05-10T07:46:34;4.60;;;3.47;;
2105;SDS011;1059;52.548;13.408;2023-05-10T07:49:01;3.50;;;3.20;;
2105;SDS011;1059;52.548;13.408;2023-05-10T07:51:28;3.80;;;3.50;;
2105;SDS011;1059;52.548;13.408;2023-05-10T07:53:54;3.00;;;2.70;;
2105;SDS011;1059;52.548;13.408;2023-05-10T07:56:23;7.20;;;3.17;;
2105;SDS011;1059;52.548;13.408;2023-05-10T07:58:52;5.33;;;3.37;;
2105;SDS011;1059;52.548;13.408;2023-05-10T08:01:19;3.27;;;2.83;;
2105;SDS011;1059;52.548;13.408;2023-05-10T08:03:47;6.70;;;3.20;;
2105;SDS011;1059;52.548;13.408;2023-05-10T08:06:16;6.90;;;3.57;;
2105;SDS011;1059;52.548;13.408;2023-05-10T08:08:43;3.97;;;3.07;;
2105;SDS011;1059;52.548;13.408;2023-05-10T08:11:15;3.70;;;3.13;;
2105;SDS011;1059;52.548;13.408;2023-05-10T08:13:42;4.40;;;3.20;;
2105;SDS011;1059;52.548;13.408;2023-05-10T08:16:09;3.63;;;3.20;;
2105;SDS011;1059;52.548;13.408;2023-05-10T08:18:36;3.20;;;2.90;;
2105;SDS011;1059;52.548;13.408;2023-05-10T08:21:05;6.50;;;3.10;;
2105;SDS011;1059;52.548;13.408;2023-05-10T08:23:32;4.03;;;2.97;;
2105;SDS011;1059;52.548;13.408;2023-05-10T08:25:59;3.03;;;2.80;;
2105;SDS011;1059;52.548;13.408;2023-05-10T08:28:26;4.93;;;3.20;;
2105;SDS011;1059;52.548;13.408;2023-05-10T08:30:53;2.97;;;2.67;;
2105;SDS011;1059;52.548;13.408;2023-05-10T08:33:20;5.97;;;3.53;;
2105;SDS011;1059;52.548;13.408;2023-05-10T08:35:47;3.37;;;3.07;;
2105;SDS011;1059;52.548;13.408;2023-05-10T08:38:15;3.67;;;2.77;;
2105;SDS011;1059;52.548;13.408;2023-05-10T08:40:42;4.00;;;2.77;;
2105;SDS011;1059;52.548;13.408;2023-05-10T08:43:11;3.40;;;3.10;;
2105;SDS011;1059;52.548;13.408;2023-05-10T08:45:40;3.77;;;2.83;;
2105;SDS011;1059;52.548;13.408;2023-05-10T08:48:08;7.20;;;2.63;;
2105;SDS011;1059;52.548;13.408;2023-05-10T08:50:36;3.27;;;2.83;;
2105;SDS011;1059;52.548;13.408;2023-05-10T08:53:04;5.20;;;2.97;;
2105;SDS011;1059;52.548;13.408;2023-05-10T08:55:34;3.37;;;2.90;;
2105;SDS011;1059;52.548;13.408;2023-05-10T08:58:03;3.60;;;3.03;;
2105;SDS011;1059;52.548;13.408;2023-05-10T09:00:30;3.93;;;2.97;;
2105;SDS011;1059;52.548;13.408;2023-05-10T09:02:58;2.77;;;2.57;;
2105;SDS011;1059;52.548;13.408;2023-05-10T09:05:25;2.77;;;2.57;;
2105;SDS011;1059;52.548;13.408;2023-05-10T09:07:52;4.10;;;2.80;;
2105;SDS011;1059;52.548;13.408;2023-05-10T09:10:19;3.10;;;2.77;;
2105;SDS011;1059;52.548;13.408;2023-05-10T09:12:48;6.60;;;3.17;;
2105;SDS011;1059;52.548;13.408;2023-05-10T09:15:15;3.80;;;2.97;;
2105;SDS011;1059;52.548;13.408;2023-05-10T09:17:44;5.00;;;2.90;;
2105;SDS011;1059;52.548;13.408;2023-05-10T09:20:11;5.10;;;2.97;;
2105;SDS011;1059;52.548;13.408;2023-05-10T09:22:38;3.83;;;3.00;;
2105;SDS011;1059;52.548;13.408;2023-05-10T09:25:06;4.67;;;3.07;;
2105;SDS011;1059;52.548;13.408;2023-05-10T09:27:34;5.40;;;2.57;;
2105;SDS011;1059;52.548;13.408;2023-05-10T09:30:03;3.30;;;3.00;;
2105;SDS011;1059;52.548;13.408;2023-05-10T09:32:38;7.90;;;2.77;;
2105;SDS011;1059;52.548;13.408;2023-05-10T09:35:06;3.83;;;2.90;;
2105;SDS011;1059;52.548;13.408;2023-05-10T09:37:34;3.63;;;2.83;;
2105;SDS011;1059;52.548;13.408;2023-05-10T09:40:03;5.17;;;3.40;;
2105;SDS011;1059;52.548;13.408;2023-05-10T09:42:32;3.40;;;2.90;;
2105;SDS011;1059;52.548;13.408;2023-05-10T09:45:00;9.33;;;3.73;;
2105;SDS011;1059;52.548;13.408;2023-05-10T09:47:32;2.63;;;2.43;;
2105;SDS011;1059;52.548;13.408;2023-05-10T09:49:59;3.40;;;2.67;;
2105;SDS011;1059;52.548;13.408;2023-05-10T09:52:29;3.53;;;3.13;;
2105;SDS011;1059;52.548;13.408;2023-05-10T09:54:57;2.70;;;2.50;;
2105;SDS011;1059;52.548;13.408;2023-05-10T09:57:24;4.53;;;2.80;;
2105;SDS011;1059;52.548;13.408;2023-05-10T09:59:52;3.50;;;2.83;;
2105;SDS011;1059;52.548;13.408;2023-05-10T10:02:21;8.20;;;3.03;;
2105;SDS011;1059;52.548;13.408;2023-05-10T10:04:55;3.40;;;2.80;;
2105;SDS011;1059;52.548;13.408;2023-05-10T10:07:22;3.40;;;2.93;;
2105;SDS011;1059;52.548;13.408;2023-05-10T10:09:51;4.60;;;2.90;;
2105;SDS011;1059;52.548;13.408;2023-05-10T10:12:19;3.80;;;2.90;;
2105;SDS011;1059;52.548;13.408;2023-05-10T10:14:46;2.90;;;2.10;;
2105;SDS011;1059;52.548;13.408;2023-05-10T10:17:14;4.53;;;3.40;;
2105;SDS011;1059;52.548;13.408;2023-05-10T10:19:43;2.73;;;2.50;;
2105;SDS011;1059;52.548;13.408;2023-05-10T10:22:11;4.30;;;2.80;;
2105;SDS011;1059;52.548;13.408;2023-05-10T10:24:38;5.90;;;3.50;;
2105;SDS011;1059;52.548;13.408;2023-05-10T10:27:11;7.00;;;2.97;;
2105;SDS011;1059;52.548;13.408;2023-05-10T10:29:47;3.30;;;2.67;;
2105;SDS011;1059;52.548;13.408;2023-05-10T10:32:26;3.47;;;3.17;;
2105;SDS011;1059;52.548;13.408;2023-05-10T10:35:03;5.90;;;2.80;;
2105;SDS011;1059;52.548;13.408;2023-05-10T10:37:43;4.43;;;3.00;;
2105;SDS011;1059;52.548;13.408;2023-05-10T10:40:23;4.60;;;3.50;;
2105;SDS011;1059;52.548;13.408;2023-05-10T10:42:51;6.00;;;2.53;;
2105;SDS011;1059;52.548;13.408;2023-05-10T10:45:19;4.40;;;2.90;;
2105;SDS011;1059;52.548;13.408;2023-05-10T10:47:47;4.10;;;2.90;;
2105;SDS011;1059;52.548;13.408;2023-05-10T10:50:16;3.43;;;2.67;;
2105;SDS011;1059;52.548;13.408;2023-05-10T10:52:43;6.80;;;2.60;;
2105;SDS011;1059;52.548;13.408;2023-05-10T10:55:11;3.50;;;3.20;;
2105;SDS011;1059;52.548;13.408;2023-05-10T10:57:43;4.90;;;2.80;;
2105;SDS011;1059;52.548;13.408;2023-05-10T11:00:21;4.90;;;2.70;;
2105;SDS011;1059;52.548;13.408;2023-05-10T11:02:53;3.87;;;3.20;;
2105;SDS011;1059;52.548;13.408;2023-05-10T11:08:16;3.90;;;3.00;;
2105;SDS011;1059;52.548;13.408;2023-05-10T11:10:51;5.40;;;3.30;;
2105;SDS011;1059;52.548;13.408;2023-05-10T11:13:29;6.47;;;4.80;;
2105;SDS011;1059;52.548;13.408;2023-05-10T11:15:57;4.10;;;2.90;;
2105;SDS011;1059;52.548;13.408;2023-05-10T11:18:26;2.80;;;2.60;;
2105;SDS011;1059;52.548;13.408;2023-05-10T11:20:57;3.73;;;3.37;;
2105;SDS011;1059;52.548;13.408;2023-05-10T11:23:29;5.27;;;2.60;;
2105;SDS011;1059;52.548;13.408;2023-05-10T11:25:57;4.50;;;3.10;;
2105;SDS011;1059;52.548;13.408;2023-05-10T11:28:26;3.40;;;2.67;;
2105;SDS011;1059;52.548;13.408;2023-05-10T11:30:53;3.43;;;2.83;;
2105;SDS011;1059;52.548;13.408;2023-05-10T11:33:21;3.30;;;2.67;;
2105;SDS011;1059;52.548;13.408;2023-05-10T11:35:47;4.17;;;2.67;;
2105;SDS011;1059;52.548;13.408;2023-05-10T11:38:16;4.83;;;2.70;;
2105;SDS011;1059;52.548;13.408;2023-05-10T11:40:43;3.87;;;3.57;;
2105;SDS011;1059;52.548;13.408;2023-05-10T11:43:09;5.63;;;2.70;;
2105;SDS011;1059;52.548;13.408;2023-05-10T11:45:37;7.80;;;2.60;;
2105;SDS011;1059;52.548;13.408;2023-05-10T11:48:04;2.90;;;2.60;;
2105;SDS011;1059;52.548;13.408;2023-05-10T11:50:31;3.10;;;2.77;;
2105;SDS011;1059;52.548;13.408;2023-05-10T11:52:58;5.10;;;2.50;;
2105;SDS011;1059;52.548;13.408;2023-05-10T11:55:27;4.40;;;2.83;;
2105;SDS011;1059;52.548;13.408;2023-05-10T11:57:55;4.83;;;2.73;;
2105;SDS011;1059;52.548;13.408;2023-05-10T12:00:26;3.03;;;2.73;;
2105;SDS011;1059;52.548;13.408;2023-05-10T12:02:53;2.77;;;2.50;;
2105;SDS011;1059;52.548;13.408;2023-05-10T12:05:20;8.10;;;2.90;;
2105;SDS011;1059;52.548;13.408;2023-05-10T12:07:47;3.00;;;2.37;;
2105;SDS011;1059;52.548;13.408;2023-05-10T12:10:14;6.73;;;2.60;;
2105;SDS011;1059;52.548;13.408;2023-05-10T12:12:44;6.13;;;3.70;;
2105;SDS011;1059;52.548;13.408;2023-05-10T12:15:16;4.80;;;3.13;;
2105;SDS011;1059;52.548;13.408;2023-05-10T12:17:45;5.60;;;2.37;;
2105;SDS011;1059;52.548;13.408;2023-05-10T12:20:12;8.17;;;2.93;;
2105;SDS011;1059;52.548;13.408;2023-05-10T12:22:40;7.90;;;2.80;;
2105;SDS011;1059;52.548;13.408;2023-05-10T12:25:09;4.53;;;2.30;;
2105;SDS011;1059;52.548;13.408;2023-05-10T12:27:36;3.20;;;2.90;;
2105;SDS011;1059;52.548;13.408;2023-05-10T12:30:05;3.80;;;2.27;;
2105;SDS011;1059;52.548;13.408;2023-05-10T12:32:39;3.20;;;2.63;;
2105;SDS011;1059;52.548;13.408;2023-05-10T12:35:07;3.13;;;2.40;;
2105;SDS011;1059;52.548;13.408;2023-05-10T12:37:34;4.80;;;2.60;;
2105;SDS011;1059;52.548;13.408;2023-05-10T12:40:05;2.37;;;2.17;;
2105;SDS011;1059;52.548;13.408;2023-05-10T12:42:34;5.23;;;2.73;;
2105;SDS011;1059;52.548;13.408;2023-05-10T12:45:01;2.60;;;2.40;;
2105;SDS011;1059;52.548;13.408;2023-05-10T12:47:30;2.77;;;2.47;;
2105;SDS011;1059;52.548;13.408;2023-05-10T12:49:57;2.57;;;2.30;;
2105;SDS011;1059;52.548;13.408;2023-05-10T12:52:25;10.90;;;2.47;;
2105;SDS011;1059;52.548;13.408;2023-05-10T12:54:51;4.23;;;2.80;;
2105;SDS011;1059;52.548;13.408;2023-05-10T12:57:20;2.30;;;2.03;;
2105;SDS011;1059;52.548;13.408;2023-05-10T12:59:47;6.23;;;2.37;;
2105;SDS011;1059;52.548;13.408;2023-05-10T13:02:14;3.00;;;2.20;;
2105;SDS011;1059;52.548;13.408;2023-05-10T13:04:44;3.70;;;2.37;;
2105;SDS011;1059;52.548;13.408;2023-05-10T13:07:11;4.37;;;2.70;;
2105;SDS011;1059;52.548;13.408;2023-05-10T13:09:38;4.57;;;2.70;;
2105;SDS011;1059;52.548;13.408;2023-05-10T13:12:05;5.93;;;2.40;;
2105;SDS011;1059;52.548;13.408;2023-05-10T13:14:32;9.00;;;2.70;;
2105;SDS011;1059;52.548;13.408;2023-05-10T13:16:59;2.60;;;2.40;;
2105;SDS011;1059;52.548;13.408;2023-05-10T13:19:26;4.83;;;3.20;;
2105;SDS011;1059;52.548;13.408;2023-05-10T13:21:54;6.43;;;3.00;;
2105;SDS011;1059;52.548;13.408;2023-05-10T13:24:21;2.80;;;2.60;;
2105;SDS011;1059;52.548;13.408;2023-05-10T13:26:48;5.27;;;3.60;;
2105;SDS011;1059;52.548;13.408;2023-05-10T13:29:15;2.43;;;2.23;;
2105;SDS011;1059;52.548;13.408;2023-05-10T13:31:43;4.53;;;2.10;;
2105;SDS011;1059;52.548;13.408;2023-05-10T13:34:10;3.20;;;2.90;;
2105;SDS011;1059;52.548;13.408;2023-05-10T13:36:37;4.83;;;1.90;;
2105;SDS011;1059;52.548;13.408;2023-05-10T13:39:05;3.00;;;2.70;;
2105;SDS011;1059;52.548;13.408;2023-05-10T13:41:32;3.00;;;2.23;;
2105;SDS011;1059;52.548;13.408;2023-05-10T13:43:59;3.40;;;2.57;;
2105;SDS011;1059;52.548;13.408;2023-05-10T13:46:26;4.27;;;2.30;;
2105;SDS011;1059;52.548;13.408;2023-05-10T13:48:53;3.93;;;2.63;;
2105;SDS011;1059;52.548;13.408;2023-05-10T13:51:19;5.20;;;2.30;;
2105;SDS011;1059;52.548;13.408;2023-05-10T13:53:46;9.53;;;2.97;;
2105;SDS011;1059;52.548;13.408;2023-05-10T13:56:15;3.43;;;2.90;;
2105;SDS011;1059;52.548;13.408;2023-05-10T13:58:41;6.77;;;2.20;;
2105;SDS011;1059;52.548;13.408;2023-05-10T14:01:08;2.93;;;2.63;;
2105;SDS011;1059;52.548;13.408;2023-05-10T14:03:36;7.93;;;2.53;;
2105;SDS011;1059;52.548;13.408;2023-05-10T14:06:03;4.23;;;2.50;;
2105;SDS011;1059;52.548;13.408;2023-05-10T14:08:32;3.60;;;2.53;;
2105;SDS011;1059;52.548;13.408;2023-05-10T14:10:59;5.60;;;2.67;;
2105;SDS011;1059;52.548;13.408;2023-05-10T14:13:27;9.73;;;3.13;;
2105;SDS011;1059;52.548;13.408;2023-05-10T14:15:54;4.63;;;2.30;;
2105;SDS011;1059;52.548;13.408;2023-05-10T14:18:21;2.90;;;2.27;;
2105;SDS011;1059;52.548;13.408;2023-05-10T14:20:48;4.07;;;2.67;;
2105;SDS011;1059;52.548;13.408;2023-05-10T14:23:15;2.13;;;2.03;;
2105;SDS011;1059;52.548;13.408;2023-05-10T14:25:42;5.53;;;2.77;;
2105;SDS011;1059;52.548;13.408;2023-05-10T14:28:09;7.00;;;3.27;;
2105;SDS011;1059;52.548;13.408;2023-05-10T14:30:38;3.10;;;2.73;;
2105;SDS011;1059;52.548;13.408;2023-05-10T14:33:04;2.73;;;2.47;;
2105;SDS011;1059;52.548;13.408;2023-05-10T14:35:32;2.93;;;2.63;;
2105;SDS011;1059;52.548;13.408;2023-05-10T14:37:59;3.60;;;2.10;;
2105;SDS011;1059;52.548;13.408;2023-05-10T14:40:26;2.37;;;2.17;;
2105;SDS011;1059;52.548;13.408;2023-05-10T14:42:53;3.10;;;2.80;;
2105;SDS011;1059;52.548;13.408;2023-05-10T14:45:21;3.03;;;2.30;;
2105;SDS011;1059;52.548;13.408;2023-05-10T14:47:50;2.90;;;2.70;;
2105;SDS011;1059;52.548;13.408;2023-05-10T14:50:16;4.20;;;2.50;;
2105;SDS011;1059;52.548;13.408;2023-05-10T14:52:43;2.20;;;2.00;;
2105;SDS011;1059;52.548;13.408;2023-05-10T14:55:10;4.93;;;2.20;;
2105;SDS011;1059;52.548;13.408;2023-05-10T14:57:37;7.23;;;2.30;;
2105;SDS011;1059;52.548;13.408;2023-05-10T15:00:05;4.90;;;2.50;;
2105;SDS011;1059;52.548;13.408;2023-05-10T15:02:32;3.73;;;3.43;;
2105;SDS011;1059;52.548;13.408;2023-05-10T15:05:01;3.20;;;2.33;;
2105;SDS011;1059;52.548;13.408;2023-05-10T15:07:28;2.60;;;2.40;;
2105;SDS011;1059;52.548;13.408;2023-05-10T15:09:56;8.80;;;2.67;;